<?xml version='1.0' encoding='utf-8'?>
<gpx xmlns="http://www.topografix.com/GPX/1/1" xmlns:xsi="http://www.w3.org/2001/XMLSchema-instance" creator="https://gpx.studio" version="1.1" xsi:schemaLocation="http://www.topografix.com/GPX/1/1 http://www.topografix.com/GPX/1/1/gpx.xsd http://www.garmin.com/xmlschemas/GpxExtensions/v3 http://www.garmin.com/xmlschemas/GpxExtensionsv3.xsd http://www.garmin.com/xmlschemas/TrackPointExtension/v1 http://www.garmin.com/xmlschemas/TrackPointExtensionv1.xsd http://www.garmin.com/xmlschemas/PowerExtension/v1 http://www.garmin.com/xmlschemas/PowerExtensionv1.xsd http://www.topografix.com/GPX/gpx_style/0/2 http://www.topografix.com/GPX/gpx_style/0/2/gpx_style.xsd">
  <metadata>
    <name>New file 1</name>
    <author>
      <name>gpx.studio</name>
      <link href="https://gpx.studio" />
    </author>
  </metadata>
  <trk>
    <name>New file 1</name>
    <trkseg>
      <trkpt lat="55.5496770" lon="8.1721740"><ele>8.551855487538935</ele>
        <time>2026-08-04T08:38:30.000Z</time>
      </trkpt><trkpt lat="55.5499260" lon="8.1719420"><ele>9.869589688623336</ele>
        <time>2026-08-04T08:40:53.336Z</time>
      </trkpt><trkpt lat="55.5499290" lon="8.1719450"><ele>9.93680731979973</ele>
        <time>2026-08-04T08:40:55.046Z</time>
      </trkpt><trkpt lat="55.5500800" lon="8.1721400"><ele>12.774961382899173</ele>
        <time>2026-08-04T08:42:27.858Z</time>
      </trkpt><trkpt lat="55.5501630" lon="8.1721450"><ele>12.396383437841818</ele>
        <time>2026-08-04T08:43:07.052Z</time>
      </trkpt><trkpt lat="55.5501740" lon="8.1721810"><ele>12.502246866780714</ele>
        <time>2026-08-04T08:43:16.796Z</time>
      </trkpt><trkpt lat="55.5502600" lon="8.1724550"><ele>11.98139162944706</ele>
        <time>2026-08-04T08:44:31.423Z</time>
      </trkpt><trkpt lat="55.5504820" lon="8.1723950"><ele>11.105600248007384</ele>
        <time>2026-08-04T08:45:46.474Z</time>
      </trkpt><trkpt lat="55.5509430" lon="8.1722690"><ele>15.659656997576784</ele>
        <time>2026-08-04T08:49:17.429Z</time>
      </trkpt><trkpt lat="55.5510110" lon="8.1720910"><ele>14.022525595491135</ele>
        <time>2026-08-04T08:50:29.400Z</time>
      </trkpt><trkpt lat="55.5510350" lon="8.1720840"><ele>14.352876096117194</ele>
        <time>2026-08-04T08:50:38.481Z</time>
      </trkpt><trkpt lat="55.5509060" lon="8.1721180"><ele>15.270060659563603</ele>
        <time>2026-08-04T08:51:27.943Z</time>
      </trkpt><trkpt lat="55.5508840" lon="8.1718590"><ele>15.203343644654549</ele>
        <time>2026-08-04T08:52:19.985Z</time>
      </trkpt><trkpt lat="55.5509060" lon="8.1721180"><ele>15.270060659563603</ele>
        <time>2026-08-04T08:53:12.624Z</time>
      </trkpt><trkpt lat="55.5510110" lon="8.1720910"><ele>14.022525595491135</ele>
        <time>2026-08-04T08:53:51.921Z</time>
      </trkpt><trkpt lat="55.5510500" lon="8.1725460"><ele>13.452151358653026</ele>
        <time>2026-08-04T08:55:21.221Z</time>
      </trkpt><trkpt lat="55.5510850" lon="8.1729290"><ele>11.040402926073778</ele>
        <time>2026-08-04T08:56:32.817Z</time>
      </trkpt><trkpt lat="55.5509560" lon="8.1729240"><ele>11.87475288645667</ele>
        <time>2026-08-04T08:57:15.724Z</time>
      </trkpt><trkpt lat="55.5508980" lon="8.1728900"><ele>12.331641698449271</ele>
        <time>2026-08-04T08:57:36.275Z</time>
      </trkpt><trkpt lat="55.5507180" lon="8.1728520"><ele>11.438094939348348</ele>
        <time>2026-08-04T08:58:43.371Z</time>
      </trkpt><trkpt lat="55.5505290" lon="8.1729590"><ele>10.952014205529455</ele>
        <time>2026-08-04T08:59:59.600Z</time>
      </trkpt><trkpt lat="55.5502910" lon="8.1730390"><ele>10.756297614424415</ele>
        <time>2026-08-04T09:01:34.614Z</time>
      </trkpt><trkpt lat="55.5501760" lon="8.1730390"><ele>11.964887650797882</ele>
        <time>2026-08-04T09:02:15.126Z</time>
      </trkpt><trkpt lat="55.5499850" lon="8.1729240"><ele>9.993426698826475</ele>
        <time>2026-08-04T09:03:24.752Z</time>
      </trkpt><trkpt lat="55.5499770" lon="8.1729090"><ele>9.875322808706851</ele>
        <time>2026-08-04T09:03:28.720Z</time>
      </trkpt><trkpt lat="55.5499850" lon="8.1729240"><ele>9.993426698826475</ele>
        <time>2026-08-04T09:03:32.688Z</time>
      </trkpt><trkpt lat="55.5498640" lon="8.1729710"><ele>9.022033136382069</ele>
        <time>2026-08-04T09:04:14.844Z</time>
      </trkpt><trkpt lat="55.5498550" lon="8.1728820"><ele>8.979689509871946</ele>
        <time>2026-08-04T09:04:31.402Z</time>
      </trkpt><trkpt lat="55.5498400" lon="8.1728860"><ele>8.924362884129174</ele>
        <time>2026-08-04T09:04:36.000Z</time>
      </trkpt><trkpt lat="55.5496760" lon="8.1729320"><ele>8.76471573738363</ele>
        <time>2026-08-04T09:05:26.339Z</time>
      </trkpt><trkpt lat="55.5495390" lon="8.1722360"><ele>8.346826070718661</ele>
        <time>2026-08-04T09:08:08.554Z</time>
      </trkpt><trkpt lat="55.5496420" lon="8.1721900"><ele>8.54862197825622</ele>
        <time>2026-08-04T09:08:49.984Z</time>
      </trkpt></trkseg>
  </trk>
</gpx>